sensor_id;sensor_type;location;lat;lon;timestamp;P1;durP1;ratioP1;P2;durP2;ratioP2
24547;SDS011;12713;51.624;4.924;2023-01-19T00:02:20;27.88;;;17.88;;
24547;SDS011;12713;51.624;4.924;2023-01-19T00:04:46;30.80;;;17.60;;
24547;SDS011;12713;51.624;4.924;2023-01-19T00:07:13;29.85;;;17.90;;
24547;SDS011;12713;51.624;4.924;2023-01-19T00:09:39;25.10;;;17.15;;
24547;SDS011;12713;51.624;4.924;2023-01-19T00:12:05;32.22;;;18.70;;
24547;SDS011;12713;51.624;4.924;2023-01-19T00:14:31;29.17;;;18.55;;
24547;SDS011;12713;51.624;4.924;2023-01-19T00:16:57;23.60;;;17.88;;
24547;SDS011;12713;51.624;4.924;2023-01-19T00:19:25;37.28;;;19.20;;
24547;SDS011;12713;51.624;4.924;2023-01-19T00:21:51;32.15;;;17.38;;
24547;SDS011;12713;51.624;4.924;2023-01-19T00:24:17;31.67;;;17.92;;
24547;SDS011;12713;51.624;4.924;2023-01-19T00:26:43;26.90;;;17.35;;
24547;SDS011;12713;51.624;4.924;2023-01-19T00:29:10;28.40;;;17.15;;
24547;SDS011;12713;51.624;4.924;2023-01-19T00:31:36;31.48;;;17.63;;
24547;SDS011;12713;51.624;4.924;2023-01-19T00:34:02;25.23;;;16.73;;
24547;SDS011;12713;51.624;4.924;2023-01-19T00:36:28;26.40;;;15.85;;
24547;SDS011;12713;51.624;4.924;2023-01-19T00:38:54;29.30;;;17.13;;
24547;SDS011;12713;51.624;4.924;2023-01-19T00:41:21;28.80;;;15.88;;
24547;SDS011;12713;51.624;4.924;2023-01-19T00:44:07;27.15;;;17.23;;
24547;SDS011;12713;51.624;4.924;2023-01-19T00:46:33;25.80;;;15.90;;
24547;SDS011;12713;51.624;4.924;2023-01-19T00:48:59;23.70;;;16.10;;
24547;SDS011;12713;51.624;4.924;2023-01-19T00:51:25;26.15;;;16.00;;
24547;SDS011;12713;51.624;4.924;2023-01-19T00:53:51;25.10;;;15.32;;
24547;SDS011;12713;51.624;4.924;2023-01-19T00:56:17;24.02;;;14.60;;
24547;SDS011;12713;51.624;4.924;2023-01-19T00:58:43;30.27;;;15.25;;
24547;SDS011;12713;51.624;4.924;2023-01-19T01:01:10;25.80;;;14.43;;
24547;SDS011;12713;51.624;4.924;2023-01-19T01:03:36;24.75;;;15.57;;
24547;SDS011;12713;51.624;4.924;2023-01-19T01:06:02;28.13;;;15.20;;
24547;SDS011;12713;51.624;4.924;2023-01-19T01:08:30;20.88;;;13.20;;
24547;SDS011;12713;51.624;4.924;2023-01-19T01:10:57;21.77;;;15.13;;
24547;SDS011;12713;51.624;4.924;2023-01-19T01:13:23;23.17;;;14.20;;
24547;SDS011;12713;51.624;4.924;2023-01-19T01:15:49;27.92;;;13.50;;
24547;SDS011;12713;51.624;4.924;2023-01-19T01:18:15;27.63;;;14.18;;
24547;SDS011;12713;51.624;4.924;2023-01-19T01:20:41;25.00;;;14.75;;
24547;SDS011;12713;51.624;4.924;2023-01-19T01:23:07;25.85;;;12.60;;
24547;SDS011;12713;51.624;4.924;2023-01-19T01:25:35;20.92;;;10.65;;
24547;SDS011;12713;51.624;4.924;2023-01-19T01:28:03;21.95;;;11.32;;
24547;SDS011;12713;51.624;4.924;2023-01-19T01:30:33;19.50;;;10.52;;
24547;SDS011;12713;51.624;4.924;2023-01-19T01:32:59;24.40;;;10.88;;
24547;SDS011;12713;51.624;4.924;2023-01-19T01:35:26;13.65;;;9.27;;
24547;SDS011;12713;51.624;4.924;2023-01-19T01:37:52;18.75;;;8.73;;
24547;SDS011;12713;51.624;4.924;2023-01-19T01:40:22;15.50;;;9.90;;
24547;SDS011;12713;51.624;4.924;2023-01-19T01:42:48;15.40;;;9.35;;
24547;SDS011;12713;51.624;4.924;2023-01-19T01:45:26;14.30;;;8.88;;
24547;SDS011;12713;51.624;4.924;2023-01-19T01:47:53;20.40;;;10.02;;
24547;SDS011;12713;51.624;4.924;2023-01-19T01:50:21;18.35;;;9.40;;
24547;SDS011;12713;51.624;4.924;2023-01-19T01:52:49;17.75;;;9.63;;
24547;SDS011;12713;51.624;4.924;2023-01-19T01:55:17;18.58;;;10.75;;
24547;SDS011;12713;51.624;4.924;2023-01-19T01:57:46;19.60;;;10.23;;
24547;SDS011;12713;51.624;4.924;2023-01-19T02:00:14;19.40;;;10.43;;
24547;SDS011;12713;51.624;4.924;2023-01-19T02:02:41;19.45;;;10.68;;
24547;SDS011;12713;51.624;4.924;2023-01-19T02:10:34;22.35;;;10.93;;
24547;SDS011;12713;51.624;4.924;2023-01-19T02:13:18;16.48;;;9.38;;
24547;SDS011;12713;51.624;4.924;2023-01-19T02:15:49;17.65;;;10.60;;
24547;SDS011;12713;51.624;4.924;2023-01-19T02:18:15;13.02;;;7.53;;
24547;SDS011;12713;51.624;4.924;2023-01-19T02:20:44;15.70;;;7.85;;
24547;SDS011;12713;51.624;4.924;2023-01-19T02:23:13;14.15;;;7.38;;
24547;SDS011;12713;51.624;4.924;2023-01-19T02:25:40;11.77;;;6.65;;
24547;SDS011;12713;51.624;4.924;2023-01-19T02:28:06;10.23;;;5.60;;
24547;SDS011;12713;51.624;4.924;2023-01-19T02:30:32;7.75;;;4.22;;
24547;SDS011;12713;51.624;4.924;2023-01-19T02:32:59;9.45;;;3.50;;
24547;SDS011;12713;51.624;4.924;2023-01-19T02:35:25;5.35;;;2.45;;
24547;SDS011;12713;51.624;4.924;2023-01-19T02:37:51;11.73;;;2.20;;
24547;SDS011;12713;51.624;4.924;2023-01-19T02:40:18;13.02;;;2.53;;
24547;SDS011;12713;51.624;4.924;2023-01-19T02:42:49;12.10;;;2.40;;
24547;SDS011;12713;51.624;4.924;2023-01-19T02:45:16;14.73;;;1.95;;
24547;SDS011;12713;51.624;4.924;2023-01-19T02:47:44;12.63;;;2.13;;
24547;SDS011;12713;51.624;4.924;2023-01-19T02:52:56;9.88;;;1.92;;
24547;SDS011;12713;51.624;4.924;2023-01-19T02:55:25;7.20;;;2.03;;
24547;SDS011;12713;51.624;4.924;2023-01-19T02:58:03;5.28;;;1.65;;
24547;SDS011;12713;51.624;4.924;2023-01-19T03:03:23;7.15;;;1.58;;
24547;SDS011;12713;51.624;4.924;2023-01-19T03:05:48;6.03;;;2.47;;
24547;SDS011;12713;51.624;4.924;2023-01-19T03:10:49;3.83;;;1.38;;
24547;SDS011;12713;51.624;4.924;2023-01-19T03:15:47;3.88;;;1.50;;
24547;SDS011;12713;51.624;4.924;2023-01-19T03:18:15;5.35;;;1.60;;
24547;SDS011;12713;51.624;4.924;2023-01-19T03:20:43;1.13;;;0.80;;
24547;SDS011;12713;51.624;4.924;2023-01-19T03:23:10;4.03;;;1.20;;
24547;SDS011;12713;51.624;4.924;2023-01-19T03:25:38;3.88;;;1.00;;
24547;SDS011;12713;51.624;4.924;2023-01-19T03:28:05;4.60;;;1.63;;
24547;SDS011;12713;51.624;4.924;2023-01-19T03:30:35;1.52;;;0.98;;
24547;SDS011;12713;51.624;4.924;2023-01-19T03:33:06;1.88;;;1.20;;
24547;SDS011;12713;51.624;4.924;2023-01-19T03:35:34;1.90;;;1.35;;
24547;SDS011;12713;51.624;4.924;2023-01-19T03:38:02;2.10;;;1.15;;
24547;SDS011;12713;51.624;4.924;2023-01-19T03:40:30;2.17;;;1.13;;
24547;SDS011;12713;51.624;4.924;2023-01-19T03:43:01;2.38;;;1.15;;
24547;SDS011;12713;51.624;4.924;2023-01-19T03:48:44;2.42;;;1.40;;
24547;SDS011;12713;51.624;4.924;2023-01-19T03:51:13;2.08;;;1.50;;
24547;SDS011;12713;51.624;4.924;2023-01-19T03:53:40;4.07;;;1.58;;
24547;SDS011;12713;51.624;4.924;2023-01-19T03:56:09;4.57;;;1.45;;
24547;SDS011;12713;51.624;4.924;2023-01-19T03:58:39;2.08;;;1.58;;
24547;SDS011;12713;51.624;4.924;2023-01-19T04:01:06;5.93;;;1.75;;
24547;SDS011;12713;51.624;4.924;2023-01-19T04:03:32;4.00;;;1.33;;
24547;SDS011;12713;51.624;4.924;2023-01-19T04:05:58;4.95;;;1.10;;
24547;SDS011;12713;51.624;4.924;2023-01-19T04:08:24;4.07;;;1.40;;
24547;SDS011;12713;51.624;4.924;2023-01-19T04:10:50;3.15;;;1.25;;
24547;SDS011;12713;51.624;4.924;2023-01-19T04:13:16;4.25;;;0.93;;
24547;SDS011;12713;51.624;4.924;2023-01-19T04:15:42;3.10;;;1.00;;
24547;SDS011;12713;51.624;4.924;2023-01-19T04:18:08;4.50;;;1.30;;
24547;SDS011;12713;51.624;4.924;2023-01-19T04:20:34;4.45;;;1.80;;
24547;SDS011;12713;51.624;4.924;2023-01-19T04:23:00;7.03;;;1.40;;
24547;SDS011;12713;51.624;4.924;2023-01-19T04:25:26;7.90;;;1.45;;
24547;SDS011;12713;51.624;4.924;2023-01-19T04:27:52;4.68;;;1.65;;
24547;SDS011;12713;51.624;4.924;2023-01-19T04:30:19;4.88;;;1.50;;
24547;SDS011;12713;51.624;4.924;2023-01-19T04:32:46;5.55;;;1.88;;
24547;SDS011;12713;51.624;4.924;2023-01-19T04:35:12;6.68;;;1.58;;
24547;SDS011;12713;51.624;4.924;2023-01-19T04:37:38;4.93;;;1.30;;
24547;SDS011;12713;51.624;4.924;2023-01-19T04:40:04;3.40;;;1.30;;
24547;SDS011;12713;51.624;4.924;2023-01-19T04:42:31;4.18;;;1.17;;
24547;SDS011;12713;51.624;4.924;2023-01-19T04:44:57;3.63;;;1.05;;
24547;SDS011;12713;51.624;4.924;2023-01-19T04:47:23;2.58;;;1.23;;
24547;SDS011;12713;51.624;4.924;2023-01-19T04:49:48;5.30;;;1.13;;
24547;SDS011;12713;51.624;4.924;2023-01-19T04:52:15;2.40;;;0.93;;
24547;SDS011;12713;51.624;4.924;2023-01-19T04:54:41;2.40;;;1.10;;
24547;SDS011;12713;51.624;4.924;2023-01-19T04:57:07;1.98;;;0.90;;
24547;SDS011;12713;51.624;4.924;2023-01-19T04:59:33;2.00;;;1.10;;
24547;SDS011;12713;51.624;4.924;2023-01-19T05:01:59;3.40;;;1.50;;
24547;SDS011;12713;51.624;4.924;2023-01-19T05:04:25;3.70;;;1.23;;
24547;SDS011;12713;51.624;4.924;2023-01-19T05:06:51;4.30;;;1.20;;
24547;SDS011;12713;51.624;4.924;2023-01-19T05:09:18;3.33;;;1.10;;
24547;SDS011;12713;51.624;4.924;2023-01-19T05:11:44;6.00;;;1.23;;
24547;SDS011;12713;51.624;4.924;2023-01-19T05:14:10;5.30;;;1.02;;
24547;SDS011;12713;51.624;4.924;2023-01-19T05:16:36;6.25;;;1.27;;
24547;SDS011;12713;51.624;4.924;2023-01-19T05:19:02;6.18;;;1.50;;
24547;SDS011;12713;51.624;4.924;2023-01-19T05:21:28;8.82;;;1.48;;
24547;SDS011;12713;51.624;4.924;2023-01-19T05:23:54;5.25;;;0.93;;
24547;SDS011;12713;51.624;4.924;2023-01-19T05:26:20;5.70;;;1.85;;
24547;SDS011;12713;51.624;4.924;2023-01-19T05:28:46;6.05;;;1.40;;
24547;SDS011;12713;51.624;4.924;2023-01-19T05:31:14;7.00;;;1.20;;
24547;SDS011;12713;51.624;4.924;2023-01-19T05:33:40;6.20;;;1.20;;
24547;SDS011;12713;51.624;4.924;2023-01-19T05:36:06;5.28;;;0.95;;
24547;SDS011;12713;51.624;4.924;2023-01-19T05:38:32;5.35;;;1.42;;
24547;SDS011;12713;51.624;4.924;2023-01-19T05:40:58;5.45;;;1.50;;
24547;SDS011;12713;51.624;4.924;2023-01-19T05:43:24;6.20;;;1.25;;
24547;SDS011;12713;51.624;4.924;2023-01-19T05:45:50;3.85;;;1.17;;
24547;SDS011;12713;51.624;4.924;2023-01-19T05:48:19;3.08;;;1.67;;
24547;SDS011;12713;51.624;4.924;2023-01-19T05:50:45;2.88;;;1.30;;
24547;SDS011;12713;51.624;4.924;2023-01-19T05:53:13;4.40;;;1.63;;
24547;SDS011;12713;51.624;4.924;2023-01-19T05:55:40;6.10;;;2.70;;
24547;SDS011;12713;51.624;4.924;2023-01-19T05:58:06;6.03;;;2.40;;
24547;SDS011;12713;51.624;4.924;2023-01-19T06:00:32;6.57;;;2.85;;
24547;SDS011;12713;51.624;4.924;2023-01-19T06:02:58;4.97;;;2.78;;
24547;SDS011;12713;51.624;4.924;2023-01-19T06:05:28;12.13;;;4.60;;
24547;SDS011;12713;51.624;4.924;2023-01-19T06:07:55;8.85;;;4.55;;
24547;SDS011;12713;51.624;4.924;2023-01-19T06:10:21;6.97;;;4.90;;
24547;SDS011;12713;51.624;4.924;2023-01-19T06:12:47;9.43;;;5.50;;
24547;SDS011;12713;51.624;4.924;2023-01-19T06:15:13;8.30;;;5.95;;
24547;SDS011;12713;51.624;4.924;2023-01-19T06:17:39;23.10;;;13.45;;
24547;SDS011;12713;51.624;4.924;2023-01-19T06:20:06;27.73;;;16.08;;
24547;SDS011;12713;51.624;4.924;2023-01-19T06:22:33;21.67;;;13.77;;
24547;SDS011;12713;51.624;4.924;2023-01-19T06:24:59;23.77;;;13.23;;
24547;SDS011;12713;51.624;4.924;2023-01-19T06:27:25;14.30;;;9.70;;
24547;SDS011;12713;51.624;4.924;2023-01-19T06:29:51;13.73;;;8.63;;
24547;SDS011;12713;51.624;4.924;2023-01-19T06:32:17;15.48;;;9.68;;
24547;SDS011;12713;51.624;4.924;2023-01-19T06:34:43;18.60;;;10.45;;
24547;SDS011;12713;51.624;4.924;2023-01-19T06:37:10;16.20;;;8.80;;
24547;SDS011;12713;51.624;4.924;2023-01-19T06:39:36;16.98;;;11.05;;
24547;SDS011;12713;51.624;4.924;2023-01-19T06:42:05;21.20;;;11.88;;
24547;SDS011;12713;51.624;4.924;2023-01-19T06:44:31;17.73;;;9.73;;
24547;SDS011;12713;51.624;4.924;2023-01-19T06:46:57;18.20;;;10.75;;
24547;SDS011;12713;51.624;4.924;2023-01-19T06:49:23;28.95;;;14.07;;
24547;SDS011;12713;51.624;4.924;2023-01-19T06:51:49;28.88;;;15.35;;
24547;SDS011;12713;51.624;4.924;2023-01-19T06:54:15;28.95;;;16.08;;
24547;SDS011;12713;51.624;4.924;2023-01-19T06:56:41;30.77;;;16.33;;
24547;SDS011;12713;51.624;4.924;2023-01-19T06:59:07;28.23;;;15.60;;
24547;SDS011;12713;51.624;4.924;2023-01-19T07:01:34;35.55;;;17.10;;
24547;SDS011;12713;51.624;4.924;2023-01-19T07:04:00;30.90;;;16.02;;
24547;SDS011;12713;51.624;4.924;2023-01-19T07:06:26;27.90;;;16.38;;
24547;SDS011;12713;51.624;4.924;2023-01-19T07:08:52;33.75;;;16.85;;
24547;SDS011;12713;51.624;4.924;2023-01-19T07:11:19;35.60;;;18.15;;
24547;SDS011;12713;51.624;4.924;2023-01-19T07:13:45;26.70;;;15.32;;
24547;SDS011;12713;51.624;4.924;2023-01-19T07:16:15;31.05;;;14.50;;
24547;SDS011;12713;51.624;4.924;2023-01-19T07:18:41;30.02;;;12.32;;
24547;SDS011;12713;51.624;4.924;2023-01-19T07:21:07;29.27;;;13.88;;
24547;SDS011;12713;51.624;4.924;2023-01-19T07:23:33;29.80;;;12.98;;
24547;SDS011;12713;51.624;4.924;2023-01-19T07:26:03;33.47;;;14.30;;
24547;SDS011;12713;51.624;4.924;2023-01-19T07:28:29;29.30;;;12.70;;
24547;SDS011;12713;51.624;4.924;2023-01-19T07:30:55;29.10;;;12.60;;
24547;SDS011;12713;51.624;4.924;2023-01-19T07:33:22;34.13;;;13.20;;
24547;SDS011;12713;51.624;4.924;2023-01-19T07:35:50;31.35;;;13.45;;
24547;SDS011;12713;51.624;4.924;2023-01-19T07:38:16;27.95;;;13.27;;
24547;SDS011;12713;51.624;4.924;2023-01-19T07:40:43;20.65;;;11.77;;
24547;SDS011;12713;51.624;4.924;2023-01-19T07:43:11;35.10;;;14.45;;
24547;SDS011;12713;51.624;4.924;2023-01-19T07:45:37;25.17;;;13.75;;
24547;SDS011;12713;51.624;4.924;2023-01-19T07:48:06;27.38;;;13.43;;
24547;SDS011;12713;51.624;4.924;2023-01-19T07:50:32;27.85;;;13.30;;
24547;SDS011;12713;51.624;4.924;2023-01-19T07:53:03;35.85;;;14.57;;
24547;SDS011;12713;51.624;4.924;2023-01-19T07:55:29;26.33;;;12.02;;
24547;SDS011;12713;51.624;4.924;2023-01-19T07:57:55;31.10;;;12.80;;
24547;SDS011;12713;51.624;4.924;2023-01-19T08:00:21;30.38;;;12.13;;
24547;SDS011;12713;51.624;4.924;2023-01-19T08:02:52;27.98;;;12.48;;
24547;SDS011;12713;51.624;4.924;2023-01-19T08:05:23;21.50;;;10.13;;
24547;SDS011;12713;51.624;4.924;2023-01-19T08:07:49;25.83;;;11.32;;
24547;SDS011;12713;51.624;4.924;2023-01-19T08:10:15;25.33;;;11.88;;
24547;SDS011;12713;51.624;4.924;2023-01-19T08:12:41;36.50;;;12.95;;
24547;SDS011;12713;51.624;4.924;2023-01-19T08:15:08;26.60;;;12.70;;
24547;SDS011;12713;51.624;4.924;2023-01-19T08:17:34;27.48;;;13.63;;
24547;SDS011;12713;51.624;4.924;2023-01-19T08:20:00;32.70;;;13.70;;
24547;SDS011;12713;51.624;4.924;2023-01-19T08:22:26;29.92;;;13.25;;
24547;SDS011;12713;51.624;4.924;2023-01-19T08:24:52;25.73;;;12.93;;
24547;SDS011;12713;51.624;4.924;2023-01-19T08:27:19;25.67;;;13.80;;
24547;SDS011;12713;51.624;4.924;2023-01-19T08:29:45;28.45;;;14.32;;
24547;SDS011;12713;51.624;4.924;2023-01-19T08:32:11;33.90;;;14.50;;
24547;SDS011;12713;51.624;4.924;2023-01-19T08:34:37;25.65;;;14.73;;
24547;SDS011;12713;51.624;4.924;2023-01-19T08:37:03;30.52;;;13.07;;
24547;SDS011;12713;51.624;4.924;2023-01-19T08:39:29;37.53;;;16.75;;
24547;SDS011;12713;51.624;4.924;2023-01-19T08:41:55;33.83;;;14.30;;
24547;SDS011;12713;51.624;4.924;2023-01-19T08:44:22;39.33;;;15.43;;
24547;SDS011;12713;51.624;4.924;2023-01-19T08:46:51;27.40;;;15.25;;
24547;SDS011;12713;51.624;4.924;2023-01-19T08:49:17;33.13;;;15.25;;
24547;SDS011;12713;51.624;4.924;2023-01-19T08:51:43;26.92;;;15.35;;
24547;SDS011;12713;51.624;4.924;2023-01-19T08:54:11;42.42;;;18.17;;
24547;SDS011;12713;51.624;4.924;2023-01-19T08:56:37;44.03;;;17.80;;
24547;SDS011;12713;51.624;4.924;2023-01-19T08:59:03;35.75;;;16.85;;
24547;SDS011;12713;51.624;4.924;2023-01-19T09:01:29;34.55;;;17.63;;
24547;SDS011;12713;51.624;4.924;2023-01-19T09:03:55;39.30;;;17.13;;
24547;SDS011;12713;51.624;4.924;2023-01-19T09:06:23;36.95;;;17.05;;
24547;SDS011;12713;51.624;4.924;2023-01-19T09:08:52;43.10;;;17.85;;
24547;SDS011;12713;51.624;4.924;2023-01-19T09:11:18;43.45;;;17.10;;
24547;SDS011;12713;51.624;4.924;2023-01-19T09:13:47;37.92;;;17.30;;
24547;SDS011;12713;51.624;4.924;2023-01-19T09:16:13;32.50;;;14.98;;
24547;SDS011;12713;51.624;4.924;2023-01-19T09:18:42;31.00;;;15.93;;
24547;SDS011;12713;51.624;4.924;2023-01-19T09:21:09;32.03;;;15.40;;
24547;SDS011;12713;51.624;4.924;2023-01-19T09:23:36;35.25;;;16.65;;
24547;SDS011;12713;51.624;4.924;2023-01-19T09:26:03;30.17;;;13.95;;
24547;SDS011;12713;51.624;4.924;2023-01-19T09:28:29;32.08;;;15.82;;
24547;SDS011;12713;51.624;4.924;2023-01-19T09:30:56;37.63;;;15.85;;
24547;SDS011;12713;51.624;4.924;2023-01-19T09:33:22;35.17;;;14.80;;
24547;SDS011;12713;51.624;4.924;2023-01-19T09:35:48;34.08;;;13.95;;
24547;SDS011;12713;51.624;4.924;2023-01-19T09:38:16;29.73;;;15.18;;
24547;SDS011;12713;51.624;4.924;2023-01-19T09:41:08;29.48;;;14.65;;
24547;SDS011;12713;51.624;4.924;2023-01-19T09:43:45;27.38;;;15.57;;
24547;SDS011;12713;51.624;4.924;2023-01-19T09:46:14;34.00;;;15.13;;
24547;SDS011;12713;51.624;4.924;2023-01-19T09:48:42;25.83;;;13.48;;
24547;SDS011;12713;51.624;4.924;2023-01-19T09:51:14;23.17;;;12.75;;
24547;SDS011;12713;51.624;4.924;2023-01-19T09:56:22;26.15;;;12.52;;
24547;SDS011;12713;51.624;4.924;2023-01-19T09:58:49;30.55;;;14.10;;
24547;SDS011;12713;51.624;4.924;2023-01-19T10:01:31;30.92;;;14.70;;
24547;SDS011;12713;51.624;4.924;2023-01-19T10:04:40;24.83;;;14.23;;
24547;SDS011;12713;51.624;4.924;2023-01-19T10:06:47;26.73;;;13.70;;
24547;SDS011;12713;51.624;4.924;2023-01-19T10:12:13;26.05;;;12.85;;
24547;SDS011;12713;51.624;4.924;2023-01-19T10:14:49;29.05;;;14.57;;
24547;SDS011;12713;51.624;4.924;2023-01-19T10:17:42;31.67;;;12.93;;
24547;SDS011;12713;51.624;4.924;2023-01-19T10:20:03;25.77;;;12.43;;
24547;SDS011;12713;51.624;4.924;2023-01-19T10:22:33;32.08;;;12.05;;
24547;SDS011;12713;51.624;4.924;2023-01-19T10:25:00;26.17;;;12.52;;
24547;SDS011;12713;51.624;4.924;2023-01-19T10:27:30;28.85;;;12.45;;
24547;SDS011;12713;51.624;4.924;2023-01-19T10:29:58;26.85;;;11.43;;
24547;SDS011;12713;51.624;4.924;2023-01-19T10:32:26;25.25;;;12.20;;
24547;SDS011;12713;51.624;4.924;2023-01-19T10:34:54;25.58;;;12.55;;
24547;SDS011;12713;51.624;4.924;2023-01-19T10:39:51;26.60;;;12.57;;
24547;SDS011;12713;51.624;4.924;2023-01-19T10:42:18;24.92;;;10.43;;
24547;SDS011;12713;51.624;4.924;2023-01-19T10:44:44;21.10;;;10.63;;
24547;SDS011;12713;51.624;4.924;2023-01-19T10:47:12;21.52;;;11.15;;
24547;SDS011;12713;51.624;4.924;2023-01-19T10:49:40;21.60;;;12.55;;
24547;SDS011;12713;51.624;4.924;2023-01-19T10:52:42;30.13;;;11.20;;
24547;SDS011;12713;51.624;4.924;2023-01-19T10:55:01;27.80;;;11.68;;
24547;SDS011;12713;51.624;4.924;2023-01-19T10:57:29;18.85;;;10.57;;
24547;SDS011;12713;51.624;4.924;2023-01-19T10:59:56;22.52;;;10.32;;
24547;SDS011;12713;51.624;4.924;2023-01-19T11:02:32;20.27;;;10.52;;
24547;SDS011;12713;51.624;4.924;2023-01-19T11:04:59;21.00;;;9.85;;
24547;SDS011;12713;51.624;4.924;2023-01-19T11:07:30;19.08;;;8.80;;
24547;SDS011;12713;51.624;4.924;2023-01-19T11:15:30;20.60;;;9.70;;
24547;SDS011;12713;51.624;4.924;2023-01-19T11:17:57;22.05;;;9.60;;
24547;SDS011;12713;51.624;4.924;2023-01-19T11:20:25;24.33;;;9.43;;
24547;SDS011;12713;51.624;4.924;2023-01-19T11:25:30;13.90;;;8.52;;
24547;SDS011;12713;51.624;4.924;2023-01-19T11:27:57;23.05;;;9.65;;
24547;SDS011;12713;51.624;4.924;2023-01-19T11:30:24;20.75;;;9.57;;
24547;SDS011;12713;51.624;4.924;2023-01-19T11:32:50;20.60;;;9.07;;
24547;SDS011;12713;51.624;4.924;2023-01-19T11:38:19;18.42;;;9.15;;
24547;SDS011;12713;51.624;4.924;2023-01-19T11:40:49;21.55;;;9.35;;
24547;SDS011;12713;51.624;4.924;2023-01-19T11:43:15;22.15;;;9.60;;
24547;SDS011;12713;51.624;4.924;2023-01-19T11:45:41;18.02;;;9.20;;
24547;SDS011;12713;51.624;4.924;2023-01-19T11:48:10;18.25;;;9.07;;
24547;SDS011;12713;51.624;4.924;2023-01-19T11:50:41;22.80;;;9.68;;
24547;SDS011;12713;51.624;4.924;2023-01-19T11:53:21;18.23;;;9.93;;
24547;SDS011;12713;51.624;4.924;2023-01-19T11:55:53;16.02;;;8.63;;
24547;SDS011;12713;51.624;4.924;2023-01-19T11:58:20;18.35;;;8.60;;
24547;SDS011;12713;51.624;4.924;2023-01-19T12:03:26;15.20;;;8.43;;
24547;SDS011;12713;51.624;4.924;2023-01-19T12:06:00;19.98;;;9.15;;
24547;SDS011;12713;51.624;4.924;2023-01-19T12:08:29;24.58;;;8.20;;
24547;SDS011;12713;51.624;4.924;2023-01-19T12:10:58;20.70;;;8.30;;
24547;SDS011;12713;51.624;4.924;2023-01-19T12:13:25;17.25;;;8.02;;
24547;SDS011;12713;51.624;4.924;2023-01-19T12:15:56;16.83;;;7.13;;
24547;SDS011;12713;51.624;4.924;2023-01-19T12:20:51;18.60;;;6.85;;
24547;SDS011;12713;51.624;4.924;2023-01-19T12:23:21;17.23;;;6.65;;
24547;SDS011;12713;51.624;4.924;2023-01-19T12:28:15;17.58;;;7.05;;
24547;SDS011;12713;51.624;4.924;2023-01-19T12:30:42;15.10;;;6.22;;
24547;SDS011;12713;51.624;4.924;2023-01-19T12:38:44;10.63;;;4.85;;
24547;SDS011;12713;51.624;4.924;2023-01-19T12:43:36;12.38;;;5.05;;
24547;SDS011;12713;51.624;4.924;2023-01-19T12:46:16;11.38;;;4.53;;
24547;SDS011;12713;51.624;4.924;2023-01-19T12:48:42;9.43;;;4.35;;
24547;SDS011;12713;51.624;4.924;2023-01-19T12:51:10;9.77;;;4.40;;
24547;SDS011;12713;51.624;4.924;2023-01-19T12:53:53;11.35;;;4.68;;
24547;SDS011;12713;51.624;4.924;2023-01-19T12:56:25;9.82;;;4.10;;
24547;SDS011;12713;51.624;4.924;2023-01-19T12:58:52;8.83;;;3.97;;
24547;SDS011;12713;51.624;4.924;2023-01-19T13:01:18;11.05;;;4.63;;
24547;SDS011;12713;51.624;4.924;2023-01-19T13:04:02;11.63;;;3.83;;
24547;SDS011;12713;51.624;4.924;2023-01-19T13:09:31;14.50;;;4.13;;
24547;SDS011;12713;51.624;4.924;2023-01-19T13:14:40;17.55;;;5.60;;
24547;SDS011;12713;51.624;4.924;2023-01-19T13:19:52;8.25;;;5.20;;
24547;SDS011;12713;51.624;4.924;2023-01-19T13:25:05;17.15;;;6.07;;
24547;SDS011;12713;51.624;4.924;2023-01-19T13:27:35;14.15;;;6.18;;
24547;SDS011;12713;51.624;4.924;2023-01-19T13:30:08;13.85;;;6.00;;
24547;SDS011;12713;51.624;4.924;2023-01-19T13:32:35;14.18;;;6.05;;
24547;SDS011;12713;51.624;4.924;2023-01-19T13:35:01;15.68;;;6.40;;
24547;SDS011;12713;51.624;4.924;2023-01-19T13:37:36;16.27;;;6.93;;
24547;SDS011;12713;51.624;4.924;2023-01-19T13:40:03;13.85;;;7.63;;
24547;SDS011;12713;51.624;4.924;2023-01-19T13:42:34;17.13;;;7.10;;
24547;SDS011;12713;51.624;4.924;2023-01-19T13:45:02;14.18;;;6.32;;
24547;SDS011;12713;51.624;4.924;2023-01-19T13:47:33;13.15;;;6.45;;
24547;SDS011;12713;51.624;4.924;2023-01-19T13:50:02;15.73;;;6.05;;
24547;SDS011;12713;51.624;4.924;2023-01-19T13:52:28;10.75;;;5.30;;
24547;SDS011;12713;51.624;4.924;2023-01-19T13:54:55;17.00;;;6.30;;
24547;SDS011;12713;51.624;4.924;2023-01-19T13:57:22;12.57;;;5.55;;
24547;SDS011;12713;51.624;4.924;2023-01-19T14:02:35;16.08;;;7.20;;
24547;SDS011;12713;51.624;4.924;2023-01-19T14:08:01;14.27;;;7.03;;
24547;SDS011;12713;51.624;4.924;2023-01-19T14:10:27;16.08;;;6.70;;
24547;SDS011;12713;51.624;4.924;2023-01-19T14:13:05;8.65;;;3.58;;
24547;SDS011;12713;51.624;4.924;2023-01-19T14:15:37;7.35;;;3.13;;
24547;SDS011;12713;51.624;4.924;2023-01-19T14:18:21;9.52;;;3.38;;
24547;SDS011;12713;51.624;4.924;2023-01-19T14:28:52;5.68;;;3.28;;
24547;SDS011;12713;51.624;4.924;2023-01-19T14:31:20;13.45;;;3.97;;
24547;SDS011;12713;51.624;4.924;2023-01-19T14:33:47;7.15;;;3.60;;
24547;SDS011;12713;51.624;4.924;2023-01-19T14:38:43;7.07;;;4.10;;
24547;SDS011;12713;51.624;4.924;2023-01-19T14:41:09;10.40;;;4.22;;
24547;SDS011;12713;51.624;4.924;2023-01-19T14:43:36;10.63;;;4.22;;
24547;SDS011;12713;51.624;4.924;2023-01-19T14:46:02;10.05;;;4.47;;
24547;SDS011;12713;51.624;4.924;2023-01-19T14:48:28;13.65;;;5.63;;
24547;SDS011;12713;51.624;4.924;2023-01-19T14:51:01;11.02;;;5.20;;
24547;SDS011;12713;51.624;4.924;2023-01-19T14:53:29;19.92;;;7.10;;
24547;SDS011;12713;51.624;4.924;2023-01-19T14:55:59;28.73;;;15.27;;
24547;SDS011;12713;51.624;4.924;2023-01-19T14:58:26;35.60;;;17.42;;
24547;SDS011;12713;51.624;4.924;2023-01-19T15:00:55;34.85;;;18.90;;
24547;SDS011;12713;51.624;4.924;2023-01-19T15:03:22;33.97;;;18.40;;
24547;SDS011;12713;51.624;4.924;2023-01-19T15:05:48;37.42;;;21.67;;
24547;SDS011;12713;51.624;4.924;2023-01-19T15:08:15;38.78;;;21.42;;
24547;SDS011;12713;51.624;4.924;2023-01-19T15:10:42;38.20;;;23.50;;
24547;SDS011;12713;51.624;4.924;2023-01-19T15:13:14;38.67;;;23.52;;
24547;SDS011;12713;51.624;4.924;2023-01-19T15:15:42;33.90;;;22.00;;
24547;SDS011;12713;51.624;4.924;2023-01-19T15:18:09;44.65;;;24.83;;
24547;SDS011;12713;51.624;4.924;2023-01-19T15:20:37;45.55;;;25.50;;
24547;SDS011;12713;51.624;4.924;2023-01-19T15:23:03;46.65;;;25.02;;
24547;SDS011;12713;51.624;4.924;2023-01-19T15:25:29;45.78;;;25.77;;
24547;SDS011;12713;51.624;4.924;2023-01-19T15:27:56;42.70;;;25.20;;
24547;SDS011;12713;51.624;4.924;2023-01-19T15:30:24;49.22;;;27.42;;
24547;SDS011;12713;51.624;4.924;2023-01-19T15:32:57;53.33;;;27.90;;
24547;SDS011;12713;51.624;4.924;2023-01-19T15:35:23;49.88;;;27.80;;
24547;SDS011;12713;51.624;4.924;2023-01-19T15:37:50;54.67;;;29.25;;
24547;SDS011;12713;51.624;4.924;2023-01-19T15:40:17;55.15;;;30.33;;
24547;SDS011;12713;51.624;4.924;2023-01-19T15:42:43;51.85;;;31.27;;
24547;SDS011;12713;51.624;4.924;2023-01-19T15:47:53;50.42;;;29.42;;
24547;SDS011;12713;51.624;4.924;2023-01-19T15:50:19;59.90;;;32.72;;
24547;SDS011;12713;51.624;4.924;2023-01-19T15:52:46;55.10;;;30.85;;
24547;SDS011;12713;51.624;4.924;2023-01-19T15:55:11;58.75;;;33.78;;
24547;SDS011;12713;51.624;4.924;2023-01-19T15:57:39;57.78;;;32.78;;
24547;SDS011;12713;51.624;4.924;2023-01-19T16:00:06;57.40;;;32.97;;